LFSN/ENC METAR and TAF weather

Enter ICAO airport designator
Station Type Date Time Source
LFSN METAR 2019/04/26 04:00 UTC NOAA

LFSN 260400Z AUTO 19005KT 160V220 9999 BKN042 OVC190 08/06 Q1013


Station Type Date Time Source
LFSN Decoded METAR 2019/04/26 04:00 UTC NOAA

Nancy / Essey, France (LFSN) 48-41N 006-13E 217M
Apr 26, 2019 - 12:00 AM EDT / 2019.04.26 0400 UTC
Wind: from the S (190 degrees) at 6 MPH (5 KT) (direction variable):0
Visibility: greater than 7 mile(s):0
Sky conditions: overcast
Temperature: 46 F (8 C)
Dew Point: 42 F (6 C)
Relative Humidity: 87%
Pressure (altimeter): 29.91 in. Hg (1013 hPa)
ob: LFSN 260400Z AUTO 19005KT 160V220 9999 BKN042 OVC190 08/06 Q1013
cycle: 4

Station Type Date Time Source
LFSN TAF 2012/03/14 16:58 UTC NOAA

TAF LFSN 141600Z 1416/1512 CNL

Example: see airport list